createdAt,value
2018-07-07T00:03:12.036Z,7.03
2018-07-07T00:07:56.684Z,6.37
2018-07-07T00:12:40.826Z,6.30
2018-07-07T00:17:24.475Z,6.80
2018-07-07T00:22:08.697Z,7.17
2018-07-07T00:26:52.671Z,7.43
2018-07-07T00:31:36.434Z,7.77
2018-07-07T00:36:21.165Z,7.13
2018-07-07T00:41:04.764Z,7.97
2018-07-07T00:45:52.285Z,7.67
2018-07-07T00:50:36.058Z,7.17
2018-07-07T00:55:19.830Z,6.60
2018-07-07T01:00:03.408Z,6.40
2018-07-07T01:04:50.164Z,5.70
2018-07-07T01:09:33.675Z,6.27
2018-07-07T01:14:17.770Z,6.50
2018-07-07T01:19:01.459Z,6.70
2018-07-07T01:23:44.910Z,6.77
2018-07-07T01:28:31.677Z,5.57
2018-07-07T01:33:15.374Z,5.80
2018-07-07T01:38:00.148Z,5.70
2018-07-07T01:42:43.857Z,5.80
2018-07-07T01:47:27.719Z,5.77
2018-07-07T01:52:11.391Z,5.37
2018-07-07T01:56:54.877Z,6.13
2018-07-07T02:01:38.534Z,6.00
2018-07-07T02:06:25.462Z,5.40
2018-07-07T02:11:09.020Z,5.07
2018-07-07T02:15:55.588Z,4.93
2018-07-07T02:20:39.010Z,4.40
2018-07-07T02:25:23.593Z,5.33
2018-07-07T02:30:07.107Z,4.67
2018-07-07T02:34:54.718Z,5.03
2018-07-07T02:39:38.307Z,4.50
2018-07-07T02:44:22.796Z,4.33
2018-07-07T02:49:06.555Z,4.87
2018-07-07T02:53:50.286Z,4.60
2018-07-07T02:58:33.987Z,4.17
2018-07-07T03:03:17.662Z,4.37
2018-07-07T03:08:04.755Z,4.73
2018-07-07T03:12:48.367Z,4.77
2018-07-07T03:17:36.480Z,4.70
2018-07-07T03:22:20.090Z,4.07
2018-07-07T03:27:07.401Z,4.20
2018-07-07T03:31:51.031Z,4.33
2018-07-07T03:36:37.678Z,4.00
2018-07-07T03:41:21.441Z,3.80
2018-07-07T03:46:06.393Z,3.40
2018-07-07T03:50:51.343Z,3.90
2018-07-07T03:55:36.039Z,3.60
2018-07-07T04:00:19.593Z,4.37
2018-07-07T04:05:06.545Z,5.50
2018-07-07T04:09:50.194Z,4.43
2018-07-07T04:14:34.953Z,4.40
2018-07-07T04:19:18.555Z,5.53
2018-07-07T04:24:03.008Z,3.87
2018-07-07T04:28:47.272Z,3.37
2018-07-07T04:33:31.015Z,4.00
2018-07-07T04:38:14.577Z,4.50
2018-07-07T04:42:58.380Z,5.97
2018-07-07T04:47:47.864Z,7.73
2018-07-07T04:52:32.644Z,8.90
2018-07-07T04:57:19.907Z,9.90
2018-07-07T05:02:03.506Z,7.70
2018-07-07T05:06:50.401Z,8.50
2018-07-07T05:11:34.110Z,9.20
2018-07-07T05:16:21.620Z,8.73
2018-07-07T05:21:05.307Z,8.97
2018-07-07T05:25:52.479Z,8.53
2018-07-07T05:30:36.164Z,9.63
2018-07-07T05:35:23.670Z,10.63
2018-07-07T05:40:07.290Z,11.20
2018-07-07T05:44:54.055Z,9.37
2018-07-07T05:49:37.639Z,10.13
2018-07-07T05:54:24.499Z,8.50
2018-07-07T05:59:07.959Z,9.80
2018-07-07T06:03:52.548Z,11.13
2018-07-07T06:08:36.226Z,10.13
2018-07-07T06:13:20.034Z,10.70
2018-07-07T06:18:03.557Z,11.73
2018-07-07T06:22:47.237Z,10.40
2018-07-07T06:27:31.831Z,11.00
2018-07-07T06:32:15.337Z,8.40
2018-07-07T06:37:00.053Z,8.53
2018-07-07T06:41:43.606Z,7.40
2018-07-07T06:46:30.360Z,7.83
2018-07-07T06:51:13.899Z,6.03
2018-07-07T06:56:01.438Z,5.53
2018-07-07T07:00:45.007Z,5.17
2018-07-07T07:05:32.399Z,4.63
2018-07-07T07:10:16.055Z,5.90
2018-07-07T07:15:02.923Z,5.47
2018-07-07T07:19:46.438Z,5.37
2018-07-07T07:24:33.120Z,5.90
2018-07-07T07:29:16.506Z,5.43
2018-07-07T07:34:01.274Z,5.50
2018-07-07T07:38:44.976Z,5.70
2018-07-07T07:43:29.788Z,5.07
2018-07-07T07:48:13.489Z,5.17
2018-07-07T07:52:57.069Z,7.07
2018-07-07T07:57:40.655Z,5.40
2018-07-07T08:02:24.221Z,5.33
2018-07-07T08:07:11.122Z,4.90
2018-07-07T08:11:54.693Z,5.53
2018-07-07T08:16:38.469Z,5.27
2018-07-07T08:21:22.030Z,4.22
2018-07-07T08:26:10.559Z,4.00
2018-07-07T08:30:54.968Z,4.45
2018-07-07T08:35:42.039Z,5.10
2018-07-07T08:40:25.792Z,4.58
2018-07-07T08:45:09.514Z,4.42
2018-07-07T08:49:53.083Z,4.25
2018-07-07T08:54:38.295Z,3.85
2018-07-07T08:59:21.861Z,4.30
2018-07-07T09:04:05.725Z,4.00
2018-07-07T09:08:49.179Z,3.65
2018-07-07T09:13:32.992Z,4.12
2018-07-07T09:18:16.471Z,3.90
2018-07-07T09:23:01.351Z,3.92
2018-07-07T09:27:45.416Z,3.37
2018-07-07T09:32:29.160Z,4.03
2018-07-07T09:37:12.829Z,3.40
2018-07-07T09:41:56.763Z,3.10
2018-07-07T09:46:44.011Z,3.37
2018-07-07T09:51:27.536Z,4.22
2018-07-07T09:56:13.221Z,3.70
2018-07-07T10:00:56.879Z,3.72
2018-07-07T10:05:42.108Z,3.15
2018-07-07T10:10:25.878Z,3.83
2018-07-07T10:15:10.491Z,4.12
2018-07-07T10:19:54.192Z,4.10
2018-07-07T10:24:38.930Z,4.10
2018-07-07T10:29:22.775Z,4.43
2018-07-07T10:34:06.650Z,4.13
2018-07-07T10:38:50.200Z,4.40
2018-07-07T10:43:33.878Z,3.58
2018-07-07T10:48:17.418Z,3.70
2018-07-07T10:53:00.810Z,2.87
2018-07-07T10:57:44.353Z,3.17
2018-07-07T11:02:28.732Z,3.87
2018-07-07T11:07:12.322Z,2.95
2018-07-07T11:11:56.035Z,3.40
2018-07-07T11:16:40.565Z,3.40
2018-07-07T11:21:24.171Z,3.45
2018-07-07T11:26:08.068Z,3.85
2018-07-07T11:30:51.604Z,3.25
2018-07-07T11:35:38.688Z,3.20
2018-07-07T11:40:22.310Z,3.52
2018-07-07T11:45:07.013Z,3.20
2018-07-07T11:49:50.787Z,3.30
2018-07-07T11:54:37.470Z,4.03
2018-07-07T11:59:21.053Z,3.85
2018-07-07T12:04:05.756Z,3.75
2018-07-07T12:08:49.702Z,4.30
2018-07-07T12:13:33.623Z,3.45
2018-07-07T12:18:17.387Z,3.85
2018-07-07T12:23:01.433Z,3.55
2018-07-07T12:27:45.626Z,3.20
2018-07-07T12:32:29.398Z,3.30
2018-07-07T12:37:13.332Z,3.00
2018-07-07T12:41:56.924Z,3.67
2018-07-07T12:46:43.943Z,3.50
2018-07-07T12:51:27.804Z,3.33
2018-07-07T12:56:12.557Z,3.67
2018-07-07T13:00:59.310Z,4.95
2018-07-07T13:05:43.179Z,3.80
2018-07-07T13:10:27.730Z,5.43
2018-07-07T13:15:11.399Z,3.73
2018-07-07T13:19:55.402Z,3.35
2018-07-07T13:24:41.490Z,3.47
2018-07-07T13:29:26.158Z,3.67
2018-07-07T13:34:09.953Z,5.00
2018-07-07T13:38:54.643Z,3.20
2018-07-07T13:43:42.820Z,3.07
2018-07-07T13:48:27.892Z,2.63
2018-07-07T13:53:11.790Z,3.10
2018-07-07T13:57:56.792Z,3.17
2018-07-07T14:02:45.197Z,3.15
2018-07-07T14:07:29.050Z,2.80
2018-07-07T14:12:12.763Z,3.57
2018-07-07T14:16:56.385Z,3.15
2018-07-07T14:21:40.256Z,3.50
2018-07-07T14:26:25.133Z,3.53
2018-07-07T14:31:08.931Z,3.52
2018-07-07T14:35:52.677Z,3.22
2018-07-07T14:40:37.067Z,3.33
2018-07-07T14:45:29.102Z,3.37
2018-07-07T14:50:13.374Z,3.87
2018-07-07T14:54:57.337Z,4.53
2018-07-07T14:59:41.724Z,3.50
2018-07-07T15:04:25.591Z,3.50
2018-07-07T15:09:09.536Z,3.90
2018-07-07T15:13:53.531Z,4.03
2018-07-07T15:18:44.472Z,3.90
2018-07-07T15:23:32.014Z,4.13
2018-07-07T15:28:17.117Z,3.93
2018-07-07T15:33:05.931Z,4.47
2018-07-07T15:38:04.235Z,4.60
2018-07-07T15:42:52.866Z,4.17
2018-07-07T15:47:40.459Z,4.50
2018-07-07T15:52:24.830Z,4.33
2018-07-07T15:57:08.747Z,4.23
2018-07-07T16:01:52.574Z,4.17
2018-07-07T16:06:36.189Z,4.83
2018-07-07T16:11:20.093Z,5.03
2018-07-07T16:16:05.084Z,4.40
2018-07-07T16:20:49.016Z,4.33
2018-07-07T16:25:32.894Z,5.13
2018-07-07T16:30:16.682Z,4.33
2018-07-07T16:35:03.551Z,4.27
2018-07-07T16:39:47.174Z,4.10
2018-07-07T16:44:31.920Z,3.63
2018-07-07T16:49:19.013Z,4.53
2018-07-07T16:54:07.709Z,4.90
2018-07-07T16:58:52.557Z,4.23
2018-07-07T17:03:39.247Z,4.37
2018-07-07T17:08:25.762Z,4.57
2018-07-07T17:13:15.031Z,4.63
2018-07-07T17:17:59.437Z,4.80
2018-07-07T17:22:44.555Z,9.30
2018-07-07T17:27:28.098Z,5.67
2018-07-07T17:32:12.720Z,4.93
2018-07-07T17:36:56.720Z,4.80
2018-07-07T17:41:41.467Z,3.90
2018-07-07T17:46:29.206Z,3.87
2018-07-07T17:51:13.967Z,3.90
2018-07-07T17:56:01.724Z,3.87
2018-07-07T18:00:45.199Z,4.47
2018-07-07T18:05:29.998Z,4.20
2018-07-07T18:10:13.582Z,4.20
2018-07-07T18:14:59.534Z,4.10
2018-07-07T18:19:43.918Z,4.00
2018-07-07T18:24:44.858Z,4.50
2018-07-07T18:29:28.869Z,4.00
2018-07-07T18:34:15.640Z,4.43
2018-07-07T18:38:59.306Z,4.07
2018-07-07T18:43:42.822Z,4.70
2018-07-07T18:48:26.406Z,4.77
2018-07-07T18:53:10.927Z,4.67
2018-07-07T18:57:54.511Z,4.80
2018-07-07T19:02:38.403Z,4.50
2018-07-07T19:07:21.948Z,4.33
2018-07-07T19:12:06.573Z,4.63
2018-07-07T19:16:50.294Z,4.70
2018-07-07T19:21:39.645Z,4.43
2018-07-07T19:26:28.637Z,4.83
2018-07-07T19:31:12.336Z,3.83
2018-07-07T19:36:01.291Z,4.10
2018-07-07T19:40:45.333Z,4.43
2018-07-07T19:45:33.309Z,4.07
2018-07-07T19:50:17.219Z,4.03
2018-07-07T19:55:04.528Z,4.50
2018-07-07T19:59:48.178Z,3.63
2018-07-07T20:04:34.860Z,3.80
2018-07-07T20:09:19.019Z,3.70
2018-07-07T20:14:02.863Z,4.00
2018-07-07T20:19:02.523Z,3.83
2018-07-07T20:23:47.059Z,3.90
2018-07-07T20:28:36.578Z,3.93
2018-07-07T20:33:23.183Z,4.13
2018-07-07T20:38:06.940Z,3.73
2018-07-07T20:42:50.938Z,4.00
2018-07-07T20:47:34.522Z,4.30
2018-07-07T20:52:18.326Z,4.20
2018-07-07T20:57:01.895Z,4.57
2018-07-07T21:01:46.647Z,4.10
2018-07-07T21:06:31.748Z,4.40
2018-07-07T21:11:16.484Z,4.37
2018-07-07T21:15:59.830Z,4.70
2018-07-07T21:20:43.669Z,4.97
2018-07-07T21:25:28.307Z,5.30
2018-07-07T21:30:11.929Z,5.10
2018-07-07T21:34:56.555Z,5.20
2018-07-07T21:39:40.514Z,5.53
2018-07-07T21:44:24.125Z,4.53
2018-07-07T21:49:07.661Z,4.80
2018-07-07T21:53:51.535Z,4.40
2018-07-07T21:58:35.257Z,4.37
2018-07-07T22:03:24.239Z,5.20
2018-07-07T22:08:13.151Z,4.37
2018-07-07T22:12:57.050Z,5.50
2018-07-07T22:17:48.920Z,5.03
2018-07-07T22:22:33.397Z,4.80
2018-07-07T22:27:16.951Z,5.10
2018-07-07T22:32:02.297Z,4.63
2018-07-07T22:36:45.861Z,4.63
2018-07-07T22:42:00.157Z,5.33
2018-07-07T22:46:43.703Z,5.23
2018-07-07T22:51:27.461Z,5.30
2018-07-07T22:56:11.070Z,5.37
2018-07-07T23:00:54.724Z,5.23
2018-07-07T23:05:38.328Z,4.53
2018-07-07T23:10:21.861Z,4.77
2018-07-07T23:15:05.326Z,4.57
2018-07-07T23:19:49.003Z,4.73
2018-07-07T23:24:32.965Z,4.73
2018-07-07T23:29:16.407Z,5.20
2018-07-07T23:33:59.992Z,5.00
2018-07-07T23:38:44.381Z,4.70
2018-07-07T23:43:28.073Z,4.90
2018-07-07T23:48:11.664Z,4.37
2018-07-07T23:52:55.459Z,4.60
2018-07-07T23:57:38.983Z,4.83
